Time;durP1;ratioP1;P1;durP2;ratioP2;P2;SDS_P1;SDS_P2;PMS_P1;PMS_P2;Temp;Humidity;BMP_temperature;BMP_pressure;BME280_temperature;BME280_humidity;BME280_pressure;Samples;Min_cycle;Max_cycle;Signal;HPM_P1;HPM_P2
2021/12/12 00:02:06;;;;;;;28.42;12.80;;;;;;;;;;5073538;28;20140;-71
2021/12/12 00:04:36;;;;;;;28.17;12.80;;;;;;;;;;5074743;28;20069;-71
2021/12/12 00:07:05;;;;;;;23.55;11.80;;;;;;;;;;5074953;28;20068;-72
2021/12/12 00:09:40;;;;;;;22.83;11.40;;;;;;;;;;5074742;28;20052;-69
2021/12/12 00:12:20;;;;;;;32.45;12.63;;;;;;;;;;5093970;28;20132;-69
2021/12/12 00:14:47;;;;;;;26.85;11.82;;;;;;;;;;5094989;28;20052;-70
2021/12/12 00:17:13;;;;;;;26.58;12.15;;;;;;;;;;5073505;28;20064;-72
2021/12/12 00:19:40;;;;;;;25.42;10.40;;;;;;;;;;5074206;28;20141;-70
2021/12/12 00:22:13;;;;;;;23.63;11.57;;;;;;;;;;5073789;28;20156;-71
2021/12/12 00:24:40;;;;;;;27.02;12.20;;;;;;;;;;5073744;28;20139;-69
2021/12/12 00:27:06;;;;;;;27.40;11.65;;;;;;;;;;5074003;28;20051;-71
2021/12/12 00:29:34;;;;;;;27.73;12.07;;;;;;;;;;5077191;28;20095;-71
2021/12/12 00:32:02;;;;;;;24.02;12.15;;;;;;;;;;5073933;28;20057;-72
2021/12/12 00:34:30;;;;;;;22.63;11.40;;;;;;;;;;5074474;28;20059;-71
2021/12/12 00:36:57;;;;;;;27.55;11.93;;;;;;;;;;5074002;28;20451;-71
2021/12/12 00:39:26;;;;;;;24.38;10.85;;;;;;;;;;5073970;28;20049;-71
2021/12/12 00:42:07;;;;;;;22.05;10.73;;;;;;;;;;5073750;28;20140;-71
2021/12/12 00:44:35;;;;;;;31.13;11.45;;;;;;;;;;5074429;28;20053;-71
2021/12/12 00:47:03;;;;;;;25.50;12.90;;;;;;;;;;5065073;28;20051;-71
2021/12/12 00:49:30;;;;;;;32.65;11.63;;;;;;;;;;5073831;28;20053;-71
2021/12/12 00:51:57;;;;;;;32.97;11.27;;;;;;;;;;5074066;28;20107;-71
2021/12/12 00:54:30;;;;;;;22.85;11.70;;;;;;;;;;5073977;28;20053;-70
2021/12/12 00:56:58;;;;;;;30.13;10.50;;;;;;;;;;5073838;28;20505;-71
2021/12/12 00:59:25;;;;;;;29.85;11.63;;;;;;;;;;5090977;28;20064;-71
2021/12/12 01:01:52;;;;;;;24.95;11.80;;;;;;;;;;5073947;28;20057;-71
2021/12/12 01:04:21;;;;;;;24.98;11.35;;;;;;;;;;5074215;28;20088;-70
2021/12/12 01:06:48;;;;;;;23.17;11.05;;;;;;;;;;5073327;28;20052;-70
2021/12/12 01:09:19;;;;;;;19.63;9.55;;;;;;;;;;5073507;28;20471;-70
2021/12/12 01:11:47;;;;;;;26.02;10.20;;;;;;;;;;5093710;28;20174;-70
2021/12/12 01:14:15;;;;;;;22.23;10.77;;;;;;;;;;5075136;28;20053;-70
2021/12/12 01:16:45;;;;;;;22.00;10.95;;;;;;;;;;5073501;28;20052;-70
2021/12/12 01:19:23;;;;;;;22.42;11.10;;;;;;;;;;5072645;28;20624;-70
2021/12/12 01:21:51;;;;;;;20.88;10.18;;;;;;;;;;5073407;28;20053;-70
2021/12/12 01:24:22;;;;;;;27.23;10.60;;;;;;;;;;5073375;28;20060;-70
2021/12/12 01:26:48;;;;;;;30.83;10.50;;;;;;;;;;5079605;28;20497;-70
2021/12/12 01:29:14;;;;;;;21.75;9.43;;;;;;;;;;5077108;28;20053;-70
2021/12/12 01:31:46;;;;;;;25.40;10.52;;;;;;;;;;5073447;28;20566;-70
2021/12/12 01:34:15;;;;;;;25.35;10.00;;;;;;;;;;5056656;28;20045;-70
2021/12/12 01:37:22;;;;;;;22.63;9.60;;;;;;;;;;5072897;28;20057;-70
2021/12/12 01:39:37;;;;;;;23.83;9.45;;;;;;;;;;5072275;28;20049;-70
2021/12/12 01:42:04;;;;;;;28.98;10.20;;;;;;;;;;5072516;28;20063;-70
2021/12/12 01:44:50;;;;;;;22.15;9.85;;;;;;;;;;5072746;28;20053;-70
2021/12/12 01:47:21;;;;;;;25.95;10.45;;;;;;;;;;5072945;28;20055;-70
2021/12/12 01:49:53;;;;;;;20.67;8.57;;;;;;;;;;5072384;28;20060;-69
2021/12/12 01:52:21;;;;;;;26.38;9.68;;;;;;;;;;5089306;28;20056;-70
2021/12/12 01:54:49;;;;;;;20.52;9.07;;;;;;;;;;5073194;28;20045;-70
2021/12/12 01:57:26;;;;;;;21.85;9.27;;;;;;;;;;5073365;28;20053;-70
2021/12/12 01:59:54;;;;;;;24.30;8.82;;;;;;;;;;5073611;28;20051;-71
2021/12/12 02:02:22;;;;;;;18.83;9.10;;;;;;;;;;5072697;28;20053;-71
2021/12/12 02:04:56;;;;;;;22.40;9.93;;;;;;;;;;5072858;28;20053;-71
2021/12/12 02:07:25;;;;;;;20.25;9.48;;;;;;;;;;5071656;28;20053;-71
2021/12/12 02:09:52;;;;;;;23.17;8.95;;;;;;;;;;5072315;28;20053;-69
2021/12/12 02:12:20;;;;;;;22.08;8.02;;;;;;;;;;5073025;28;20055;-71
2021/12/12 02:14:46;;;;;;;23.35;8.38;;;;;;;;;;5072739;28;20084;-71
2021/12/12 02:17:20;;;;;;;22.25;9.13;;;;;;;;;;5072802;28;20064;-69
2021/12/12 02:20:04;;;;;;;25.58;8.52;;;;;;;;;;5064904;28;20061;-71
2021/12/12 02:22:50;;;;;;;23.38;9.02;;;;;;;;;;5080835;28;20057;-70
2021/12/12 02:36:22;;;;;;;21.65;9.63;;;;;;;;;;5072837;28;20045;-70
2021/12/12 02:38:50;;;;;;;22.08;9.00;;;;;;;;;;5072894;28;20057;-69
2021/12/12 02:41:17;;;;;;;27.67;10.07;;;;;;;;;;5094034;28;20473;-70
2021/12/12 02:43:52;;;;;;;23.25;9.45;;;;;;;;;;5078499;28;20527;-69
2021/12/12 02:46:26;;;;;;;22.73;9.82;;;;;;;;;;5071999;28;20053;-71
2021/12/12 02:48:58;;;;;;;26.63;10.50;;;;;;;;;;5072216;28;20136;-71
2021/12/12 02:51:25;;;;;;;20.88;9.60;;;;;;;;;;5072585;28;20107;-69
2021/12/12 02:53:54;;;;;;;17.25;9.52;;;;;;;;;;5089832;28;20053;-69
2021/12/12 02:56:22;;;;;;;22.65;9.65;;;;;;;;;;5075887;28;20555;-69
2021/12/12 02:58:49;;;;;;;22.00;10.57;;;;;;;;;;5079990;28;20053;-69
2021/12/12 03:01:18;;;;;;;21.45;9.32;;;;;;;;;;5075219;28;20056;-69
2021/12/12 03:03:46;;;;;;;20.75;10.50;;;;;;;;;;5075693;28;20498;-69
2021/12/12 03:06:14;;;;;;;26.90;10.05;;;;;;;;;;5075361;28;20048;-69
2021/12/12 03:08:42;;;;;;;26.13;9.88;;;;;;;;;;5079084;28;20060;-69
2021/12/12 03:11:09;;;;;;;27.75;9.70;;;;;;;;;;5055319;28;20157;-70
2021/12/12 03:13:36;;;;;;;18.50;10.05;;;;;;;;;;5055189;28;20058;-70
2021/12/12 03:16:03;;;;;;;17.52;9.43;;;;;;;;;;5068031;28;20079;-69
2021/12/12 03:18:31;;;;;;;14.82;9.95;;;;;;;;;;5075357;28;20060;-69
2021/12/12 03:21:00;;;;;;;20.30;9.77;;;;;;;;;;5075690;28;20057;-70
2021/12/12 03:23:29;;;;;;;18.65;9.20;;;;;;;;;;5075183;28;20510;-70
2021/12/12 03:26:01;;;;;;;20.15;9.77;;;;;;;;;;5061710;28;20058;-69
2021/12/12 03:28:28;;;;;;;18.13;9.05;;;;;;;;;;5066575;28;20053;-70
2021/12/12 03:30:56;;;;;;;15.75;8.27;;;;;;;;;;5075409;28;20548;-71
2021/12/12 03:33:23;;;;;;;25.45;10.20;;;;;;;;;;5075474;28;20057;-69
2021/12/12 03:35:51;;;;;;;16.98;9.95;;;;;;;;;;5073532;28;20141;-70
2021/12/12 03:38:18;;;;;;;16.33;9.90;;;;;;;;;;5075547;28;20143;-70
2021/12/12 03:40:45;;;;;;;16.65;9.98;;;;;;;;;;5075193;28;20068;-72
2021/12/12 03:43:12;;;;;;;13.23;9.05;;;;;;;;;;5075049;28;20055;-70
2021/12/12 03:45:40;;;;;;;14.25;9.18;;;;;;;;;;5075077;28;20512;-70
2021/12/12 03:48:09;;;;;;;19.50;10.57;;;;;;;;;;5081730;28;20057;-71
2021/12/12 03:50:37;;;;;;;17.90;9.93;;;;;;;;;;5074858;28;20059;-71
2021/12/12 03:53:03;;;;;;;22.30;10.63;;;;;;;;;;5074868;28;20053;-70
2021/12/12 03:55:29;;;;;;;21.10;11.65;;;;;;;;;;5074778;28;20076;-72
2021/12/12 03:57:57;;;;;;;21.40;10.73;;;;;;;;;;5070679;28;20053;-70
2021/12/12 04:00:29;;;;;;;17.60;11.18;;;;;;;;;;5054577;28;20528;-70
2021/12/12 04:02:56;;;;;;;22.27;11.73;;;;;;;;;;5068385;28;20867;-70
2021/12/12 04:05:22;;;;;;;17.75;12.93;;;;;;;;;;5067821;28;20052;-70
2021/12/12 04:07:49;;;;;;;19.30;12.15;;;;;;;;;;5074922;28;20053;-71
2021/12/12 04:10:19;;;;;;;17.25;12.07;;;;;;;;;;5074974;28;20049;-71
2021/12/12 04:12:47;;;;;;;25.05;13.20;;;;;;;;;;5074234;28;20685;-69
2021/12/12 04:15:13;;;;;;;24.88;14.57;;;;;;;;;;5074668;28;20508;-70
2021/12/12 04:17:40;;;;;;;21.25;13.15;;;;;;;;;;5074268;28;20136;-71
2021/12/12 04:20:14;;;;;;;26.02;14.93;;;;;;;;;;5073956;28;20059;-71
2021/12/12 04:22:40;;;;;;;19.95;13.63;;;;;;;;;;5074314;28;20060;-71
2021/12/12 04:25:07;;;;;;;26.88;16.67;;;;;;;;;;5060471;28;20053;-71
2021/12/12 04:27:33;;;;;;;26.33;15.30;;;;;;;;;;5054148;28;20084;-70
2021/12/12 04:30:03;;;;;;;29.73;16.33;;;;;;;;;;5054335;28;20056;-69
2021/12/12 04:32:30;;;;;;;25.05;16.35;;;;;;;;;;5059805;28;20057;-69
2021/12/12 04:35:08;;;;;;;31.65;18.25;;;;;;;;;;5073867;28;20053;-70
2021/12/12 04:37:35;;;;;;;29.23;16.50;;;;;;;;;;5073815;28;20135;-69
2021/12/12 04:40:03;;;;;;;31.30;18.42;;;;;;;;;;5074099;28;20053;-70
2021/12/12 04:42:35;;;;;;;28.05;16.42;;;;;;;;;;5074083;28;20049;-70
2021/12/12 04:45:07;;;;;;;25.40;16.88;;;;;;;;;;5059473;28;20077;-70
2021/12/12 04:50:22;;;;;;;29.85;18.10;;;;;;;;;;5074123;28;20049;-70
2021/12/12 04:53:07;;;;;;;30.73;18.05;;;;;;;;;;5073108;28;20594;-70
2021/12/12 04:55:49;;;;;;;30.02;17.80;;;;;;;;;;5061934;28;20137;-70
2021/12/12 04:58:25;;;;;;;27.95;17.50;;;;;;;;;;5061781;28;20055;-71
2021/12/12 05:01:04;;;;;;;34.63;18.65;;;;;;;;;;5073789;28;20148;-70
2021/12/12 05:03:36;;;;;;;30.15;18.85;;;;;;;;;;5073320;28;20049;-69
2021/12/12 05:06:06;;;;;;;32.40;18.83;;;;;;;;;;5073607;28;20048;-70
2021/12/12 05:08:51;;;;;;;29.55;18.70;;;;;;;;;;5073385;28;20144;-71
2021/12/12 05:11:24;;;;;;;30.30;18.60;;;;;;;;;;5073752;28;20535;-70
2021/12/12 05:13:55;;;;;;;38.08;20.23;;;;;;;;;;5073915;28;20052;-70
2021/12/12 05:16:25;;;;;;;31.15;18.85;;;;;;;;;;5072879;28;20631;-69
2021/12/12 05:18:52;;;;;;;35.00;20.08;;;;;;;;;;5072862;28;20041;-70
2021/12/12 05:21:25;;;;;;;35.83;19.67;;;;;;;;;;5073742;28;20056;-71
2021/12/12 05:23:52;;;;;;;33.97;18.85;;;;;;;;;;5073187;28;20052;-70
2021/12/12 05:26:39;;;;;;;32.92;18.45;;;;;;;;;;5072959;28;20573;-71
2021/12/12 05:29:07;;;;;;;30.48;18.52;;;;;;;;;;5071866;28;20048;-71
2021/12/12 05:31:34;;;;;;;34.10;20.67;;;;;;;;;;5071414;28;20045;-70
2021/12/12 05:34:01;;;;;;;35.80;21.90;;;;;;;;;;5072371;28;20056;-70
2021/12/12 05:36:28;;;;;;;40.05;22.30;;;;;;;;;;5072880;28;20497;-70
2021/12/12 05:38:58;;;;;;;39.00;21.48;;;;;;;;;;5072441;28;20164;-71
2021/12/12 05:41:24;;;;;;;37.72;22.63;;;;;;;;;;5072814;28;20056;-71
2021/12/12 05:43:53;;;;;;;38.53;22.08;;;;;;;;;;5072369;28;20132;-70
2021/12/12 05:46:20;;;;;;;37.45;21.40;;;;;;;;;;5073322;28;20053;-70
2021/12/12 05:48:49;;;;;;;42.72;22.67;;;;;;;;;;5072938;28;20053;-72
2021/12/12 05:51:16;;;;;;;40.65;21.92;;;;;;;;;;5072228;28;20057;-71
2021/12/12 05:53:43;;;;;;;39.95;22.40;;;;;;;;;;5072754;28;20053;-70
2021/12/12 05:56:10;;;;;;;39.08;22.15;;;;;;;;;;5073229;28;20053;-70
2021/12/12 05:58:37;;;;;;;42.28;22.73;;;;;;;;;;5072388;28;20049;-70
2021/12/12 06:01:07;;;;;;;40.65;22.13;;;;;;;;;;5073320;28;20092;-70
2021/12/12 06:03:37;;;;;;;46.63;24.00;;;;;;;;;;5072644;28;20064;-69
2021/12/12 06:06:05;;;;;;;42.45;23.17;;;;;;;;;;5070957;28;20084;-70
2021/12/12 06:08:32;;;;;;;45.83;25.05;;;;;;;;;;5072469;28;20481;-68
2021/12/12 06:10:59;;;;;;;45.90;24.75;;;;;;;;;;5073000;28;20049;-69
2021/12/12 06:13:26;;;;;;;46.72;26.10;;;;;;;;;;5072904;28;20147;-70
2021/12/12 06:15:54;;;;;;;44.47;24.15;;;;;;;;;;5073093;28;20127;-69
2021/12/12 06:18:21;;;;;;;48.45;25.83;;;;;;;;;;5062906;28;20049;-71
2021/12/12 06:20:48;;;;;;;53.58;25.70;;;;;;;;;;5054775;28;20064;-70
2021/12/12 06:23:15;;;;;;;54.00;27.05;;;;;;;;;;5073112;28;20063;-70
2021/12/12 06:25:43;;;;;;;56.45;29.00;;;;;;;;;;5072761;28;20049;-71
2021/12/12 06:28:10;;;;;;;55.35;28.10;;;;;;;;;;5061649;27;20057;-70
2021/12/12 06:30:37;;;;;;;55.90;27.80;;;;;;;;;;5069406;28;20045;-70
2021/12/12 06:33:04;;;;;;;65.80;31.25;;;;;;;;;;5057661;28;20486;-69
2021/12/12 06:35:30;;;;;;;56.88;28.02;;;;;;;;;;5064946;28;20060;-72
2021/12/12 06:38:01;;;;;;;61.40;27.30;;;;;;;;;;5057746;28;20144;-71
2021/12/12 06:40:28;;;;;;;61.42;28.45;;;;;;;;;;5075501;28;20523;-69
2021/12/12 06:42:54;;;;;;;68.47;29.33;;;;;;;;;;5064162;28;20053;-66
2021/12/12 06:45:22;;;;;;;64.30;27.85;;;;;;;;;;5055691;28;20536;-71
2021/12/12 06:47:49;;;;;;;68.97;29.67;;;;;;;;;;5063548;28;20061;-70
2021/12/12 06:50:15;;;;;;;66.22;28.45;;;;;;;;;;5073304;28;20048;-70
2021/12/12 06:52:42;;;;;;;66.93;31.38;;;;;;;;;;5057589;28;20149;-72
2021/12/12 06:55:10;;;;;;;62.97;29.42;;;;;;;;;;5075445;28;20144;-69
2021/12/12 06:57:37;;;;;;;64.18;30.05;;;;;;;;;;5074353;28;20060;-71
2021/12/12 07:00:05;;;;;;;59.13;27.48;;;;;;;;;;5073291;28;20111;-69
2021/12/12 07:02:31;;;;;;;70.75;31.08;;;;;;;;;;5072601;28;20057;-70
2021/12/12 07:04:58;;;;;;;72.60;30.33;;;;;;;;;;5065507;28;20127;-70
2021/12/12 07:07:25;;;;;;;64.15;29.77;;;;;;;;;;5075771;28;20057;-70
2021/12/12 07:09:52;;;;;;;69.55;29.38;;;;;;;;;;5075043;28;20492;-70
2021/12/12 07:12:22;;;;;;;77.70;31.20;;;;;;;;;;5075306;28;20075;-71
2021/12/12 07:14:50;;;;;;;75.20;31.02;;;;;;;;;;5075626;28;20518;-70
2021/12/12 07:17:17;;;;;;;77.72;32.10;;;;;;;;;;5074030;28;20045;-70
2021/12/12 07:19:43;;;;;;;80.25;32.85;;;;;;;;;;5075750;28;20088;-69
2021/12/12 07:22:10;;;;;;;95.38;35.35;;;;;;;;;;5074269;28;20053;-70
2021/12/12 07:24:37;;;;;;;86.55;34.83;;;;;;;;;;5082871;28;20136;-69
2021/12/12 07:27:05;;;;;;;93.68;35.30;;;;;;;;;;5075727;28;20103;-69
2021/12/12 07:29:31;;;;;;;108.72;36.83;;;;;;;;;;5075623;28;20060;-69
2021/12/12 07:31:58;;;;;;;102.05;36.75;;;;;;;;;;5090545;28;20518;-69
2021/12/12 07:34:25;;;;;;;109.75;38.47;;;;;;;;;;5075545;28;20160;-69
2021/12/12 07:36:53;;;;;;;125.78;37.78;;;;;;;;;;5074488;28;20061;-69
2021/12/12 07:39:22;;;;;;;109.65;36.95;;;;;;;;;;5094968;28;20052;-69
2021/12/12 07:41:49;;;;;;;113.50;39.65;;;;;;;;;;5094126;28;20060;-69
2021/12/12 07:44:17;;;;;;;118.55;37.88;;;;;;;;;;5095152;28;20581;-69
2021/12/12 07:46:44;;;;;;;121.55;38.20;;;;;;;;;;5092598;28;20056;-68
2021/12/12 07:49:17;;;;;;;109.95;36.03;;;;;;;;;;5089393;28;20052;-71
2021/12/12 07:51:44;;;;;;;126.18;39.60;;;;;;;;;;5081376;28;20059;-71
2021/12/12 07:54:10;;;;;;;114.88;36.35;;;;;;;;;;5074885;28;20053;-69
2021/12/12 07:56:38;;;;;;;117.22;39.42;;;;;;;;;;5088379;28;20503;-69
2021/12/12 07:59:06;;;;;;;121.07;38.60;;;;;;;;;;5074838;28;20451;-69
2021/12/12 08:01:33;;;;;;;122.25;38.08;;;;;;;;;;5083836;28;20053;-70
2021/12/12 08:03:59;;;;;;;124.20;36.63;;;;;;;;;;5082252;28;20045;-70
2021/12/12 08:06:26;;;;;;;110.85;35.95;;;;;;;;;;5082250;28;20052;-69
2021/12/12 08:08:53;;;;;;;111.55;35.35;;;;;;;;;;5094674;28;20056;-69
2021/12/12 08:11:24;;;;;;;90.90;31.58;;;;;;;;;;5099332;28;20067;-69
2021/12/12 08:13:51;;;;;;;103.95;32.22;;;;;;;;;;5076083;28;20052;-69
2021/12/12 08:16:18;;;;;;;95.38;32.42;;;;;;;;;;5083434;28;20048;-69
2021/12/12 08:18:45;;;;;;;93.25;32.28;;;;;;;;;;5073537;28;20061;-69
2021/12/12 08:21:12;;;;;;;92.22;31.75;;;;;;;;;;5071443;28;20076;-69
2021/12/12 08:23:39;;;;;;;90.45;31.20;;;;;;;;;;5088404;28;20053;-69
2021/12/12 08:26:07;;;;;;;88.03;29.70;;;;;;;;;;5084140;28;20053;-69
2021/12/12 08:28:33;;;;;;;90.47;29.70;;;;;;;;;;5073444;28;20063;-69
2021/12/12 08:31:00;;;;;;;92.00;31.08;;;;;;;;;;5074401;28;20053;-69
2021/12/12 08:33:26;;;;;;;81.78;29.38;;;;;;;;;;5077993;28;20059;-69
2021/12/12 08:35:53;;;;;;;93.75;29.33;;;;;;;;;;5074106;28;20516;-71
2021/12/12 08:38:19;;;;;;;102.43;32.28;;;;;;;;;;5087442;28;20597;-68
2021/12/12 08:40:48;;;;;;;119.80;32.42;;;;;;;;;;5094278;28;20060;-68
2021/12/12 08:43:15;;;;;;;102.28;34.15;;;;;;;;;;5073242;28;20542;-69
2021/12/12 08:45:46;;;;;;;131.88;35.88;;;;;;;;;;5087177;28;20570;-70
2021/12/12 08:48:14;;;;;;;120.88;34.33;;;;;;;;;;5075066;28;20050;-70
2021/12/12 08:50:41;;;;;;;143.35;36.72;;;;;;;;;;5065565;28;20073;-69
2021/12/12 08:53:07;;;;;;;122.75;36.58;;;;;;;;;;5073985;28;20057;-69
2021/12/12 08:55:36;;;;;;;121.05;33.42;;;;;;;;;;5074552;28;20092;-69
2021/12/12 08:58:14;;;;;;;100.20;32.08;;;;;;;;;;5074034;28;20060;-69
2021/12/12 09:00:52;;;;;;;88.60;28.52;;;;;;;;;;5073610;28;20151;-69
2021/12/12 09:03:21;;;;;;;93.82;31.38;;;;;;;;;;5070429;28;20100;-69
2021/12/12 09:05:47;;;;;;;72.30;27.75;;;;;;;;;;5073331;28;20053;-69
2021/12/12 09:08:23;;;;;;;79.13;25.85;;;;;;;;;;5073609;28;20056;-70
2021/12/12 09:10:58;;;;;;;82.43;27.05;;;;;;;;;;5052119;28;20049;-69
2021/12/12 09:13:37;;;;;;;93.75;30.50;;;;;;;;;;5073306;28;20075;-69
2021/12/12 09:16:11;;;;;;;83.18;28.17;;;;;;;;;;5073064;28;20489;-69
2021/12/12 09:18:40;;;;;;;111.70;32.22;;;;;;;;;;5073436;28;20077;-69
2021/12/12 09:21:10;;;;;;;98.07;29.42;;;;;;;;;;5072390;28;20053;-69
2021/12/12 09:23:42;;;;;;;83.05;27.83;;;;;;;;;;5068066;28;20579;-69
2021/12/12 09:26:14;;;;;;;90.90;28.02;;;;;;;;;;5070441;28;20053;-69
2021/12/12 09:28:49;;;;;;;79.88;26.38;;;;;;;;;;5065972;28;20527;-69
2021/12/12 09:31:21;;;;;;;69.35;24.60;;;;;;;;;;5065519;28;20059;-70
2021/12/12 09:33:51;;;;;;;78.20;26.13;;;;;;;;;;5070017;28;20052;-68
2021/12/12 09:36:37;;;;;;;76.45;25.85;;;;;;;;;;5071037;28;20060;-70
2021/12/12 09:39:19;;;;;;;80.80;25.83;;;;;;;;;;5066381;28;20055;-69
2021/12/12 09:42:04;;;;;;;85.32;28.60;;;;;;;;;;5073218;28;20061;-70
2021/12/12 09:44:39;;;;;;;87.80;28.45;;;;;;;;;;5072535;28;20055;-70
2021/12/12 09:47:29;;;;;;;76.90;26.25;;;;;;;;;;5072858;28;20147;-70
2021/12/12 09:53:05;;;;;;;64.97;23.33;;;;;;;;;;5059567;28;20049;-69
2021/12/12 09:55:41;;;;;;;68.32;25.17;;;;;;;;;;5061243;28;20069;-68
2021/12/12 09:58:26;;;;;;;63.80;22.90;;;;;;;;;;5067380;28;20059;-68
2021/12/12 10:00:58;;;;;;;75.65;24.90;;;;;;;;;;5060683;28;20424;-68
2021/12/12 10:03:32;;;;;;;67.70;23.65;;;;;;;;;;5058469;28;20054;-68
2021/12/12 10:06:14;;;;;;;51.05;23.35;;;;;;;;;;5061474;28;20054;-68
2021/12/12 10:08:53;;;;;;;56.85;21.65;;;;;;;;;;5061425;28;20107;-69
2021/12/12 10:11:39;;;;;;;56.70;22.30;;;;;;;;;;5067031;28;20138;-70
2021/12/12 10:14:13;;;;;;;59.92;21.80;;;;;;;;;;5060258;28;20050;-71
2021/12/12 10:16:55;;;;;;;57.53;20.93;;;;;;;;;;5071317;28;20156;-69
2021/12/12 10:19:30;;;;;;;46.60;20.55;;;;;;;;;;5064451;28;20493;-68
2021/12/12 10:21:57;;;;;;;;;;;;;;;;;;5072726;28;20045;-68
2021/12/12 10:24:23;;;;;;;;;;;;;;;;;;5069062;28;44652;-69
2021/12/12 10:26:53;;;;;;;42.45;19.42;;;;;;;;;;5071938;28;46510;-69
2021/12/12 10:29:29;;;;;;;45.88;19.75;;;;;;;;;;5068352;28;20060;-69
2021/12/12 10:31:55;;;;;;;;;;;;;;;;;;5067657;28;20055;-69
2021/12/12 10:34:22;;;;;;;;;;;;;;;;;;5071785;28;45757;-69
2021/12/12 10:36:48;;;;;;;35.30;16.05;;;;;;;;;;5062245;27;43975;-69
2021/12/12 10:39:18;;;;;;;37.63;17.10;;;;;;;;;;5068554;28;20132;-68
2021/12/12 10:41:46;;;;;;;41.05;16.83;;;;;;;;;;5068251;28;20441;-69
2021/12/12 10:44:15;;;;;;;34.53;16.80;;;;;;;;;;5069261;28;20151;-69
2021/12/12 10:46:56;;;;;;;31.08;16.05;;;;;;;;;;5065354;28;20154;-69
2021/12/12 10:49:23;;;;;;;35.72;16.27;;;;;;;;;;5068407;28;20045;-68
2021/12/12 10:51:56;;;;;;;26.40;14.10;;;;;;;;;;5070086;28;20056;-69
2021/12/12 10:54:35;;;;;;;31.15;15.25;;;;;;;;;;5066685;28;20053;-69
2021/12/12 10:57:03;;;;;;;32.63;15.38;;;;;;;;;;5070906;28;20075;-70
2021/12/12 10:59:39;;;;;;;36.03;16.17;;;;;;;;;;5069570;28;20060;-67
2021/12/12 11:02:07;;;;;;;33.55;16.77;;;;;;;;;;5067772;28;20080;-69
2021/12/12 11:04:43;;;;;;;32.42;17.08;;;;;;;;;;5071243;28;20139;-71
2021/12/12 11:07:09;;;;;;;;;;;;;;;;;;5072154;28;20535;-68
2021/12/12 11:09:44;;;;;;;37.63;16.90;;;;;;;;;;5070695;28;46816;-70
2021/12/12 11:12:24;;;;;;;40.95;18.25;;;;;;;;;;5072397;28;20053;-71
2021/12/12 11:15:03;;;;;;;41.72;18.98;;;;;;;;;;5067918;28;20468;-70
2021/12/12 11:17:36;;;;;;;41.92;19.08;;;;;;;;;;5074782;28;20518;-70
2021/12/12 11:20:16;;;;;;;43.80;18.40;;;;;;;;;;5074773;28;20049;-71
2021/12/12 11:22:45;;;;;;;46.55;18.70;;;;;;;;;;5074299;28;20497;-71
2021/12/12 11:25:31;;;;;;;45.58;19.42;;;;;;;;;;5075230;28;20060;-70
2021/12/12 11:28:00;;;;;;;45.78;19.63;;;;;;;;;;5073461;28;20053;-72
2021/12/12 11:30:31;;;;;;;44.55;19.35;;;;;;;;;;5074586;28;20079;-70
2021/12/12 11:32:59;;;;;;;53.38;20.95;;;;;;;;;;5074982;28;20057;-70
2021/12/12 11:35:28;;;;;;;47.50;20.33;;;;;;;;;;5075668;28;20057;-67
2021/12/12 11:38:03;;;;;;;50.10;21.92;;;;;;;;;;5074276;28;20527;-70
2021/12/12 11:40:38;;;;;;;50.03;19.80;;;;;;;;;;5074828;28;20060;-69
2021/12/12 11:43:04;;;;;;;41.00;17.85;;;;;;;;;;5072037;28;20048;-69
2021/12/12 11:45:38;;;;;;;40.92;19.00;;;;;;;;;;5073809;28;20148;-70
2021/12/12 11:48:13;;;;;;;45.53;19.27;;;;;;;;;;5088595;28;20056;-70
2021/12/12 11:50:46;;;;;;;41.67;19.05;;;;;;;;;;5089174;28;20080;-70
2021/12/12 11:53:33;;;;;;;40.85;17.63;;;;;;;;;;5073506;28;20059;-70
2021/12/12 11:56:02;;;;;;;38.40;17.90;;;;;;;;;;5075455;28;20057;-70
2021/12/12 11:58:39;;;;;;;45.10;17.88;;;;;;;;;;5074968;28;20063;-70
2021/12/12 12:01:15;;;;;;;43.60;18.50;;;;;;;;;;5075038;28;20103;-69
2021/12/12 12:04:08;;;;;;;36.03;17.92;;;;;;;;;;5071696;28;20045;-70
2021/12/12 12:06:40;;;;;;;41.65;17.55;;;;;;;;;;5064850;28;20467;-69
2021/12/12 12:09:11;;;;;;;39.47;18.30;;;;;;;;;;5059395;28;20053;-69
2021/12/12 12:11:46;;;;;;;40.13;18.17;;;;;;;;;;5067745;27;20057;-70
2021/12/12 12:14:31;;;;;;;42.93;18.53;;;;;;;;;;5067758;28;20099;-69
2021/12/12 12:17:09;;;;;;;36.92;16.25;;;;;;;;;;5072904;28;20073;-70
2021/12/12 12:19:51;;;;;;;42.60;19.08;;;;;;;;;;5069436;28;20502;-69
2021/12/12 12:22:24;;;;;;;42.53;18.42;;;;;;;;;;5065801;28;20064;-69
2021/12/12 12:25:02;;;;;;;35.65;17.17;;;;;;;;;;5071490;28;20136;-69
2021/12/12 12:27:38;;;;;;;40.90;17.92;;;;;;;;;;5062633;28;20049;-69
2021/12/12 12:30:23;;;;;;;42.08;19.00;;;;;;;;;;5061431;28;20425;-69
2021/12/12 12:32:58;;;;;;;42.63;17.55;;;;;;;;;;5061716;28;20500;-68
2021/12/12 12:35:43;;;;;;;34.80;17.15;;;;;;;;;;5069335;28;20424;-70
2021/12/12 12:38:48;;;;;;;36.93;16.73;;;;;;;;;;5055897;28;20057;-71
2021/12/12 12:41:32;;;;;;;33.00;15.10;;;;;;;;;;5053327;28;20057;-70
2021/12/12 12:44:18;;;;;;;29.70;14.48;;;;;;;;;;5073734;28;20049;-69
2021/12/12 12:47:21;;;;;;;28.98;14.25;;;;;;;;;;5071721;28;20052;-69
2021/12/12 12:49:47;;;;;;;36.60;15.80;;;;;;;;;;5072796;28;20515;-69
2021/12/12 12:52:21;;;;;;;35.42;15.38;;;;;;;;;;5069765;28;20147;-69
2021/12/12 12:55:07;;;;;;;26.98;15.32;;;;;;;;;;5072431;28;20049;-68
2021/12/12 12:57:36;;;;;;;34.55;16.38;;;;;;;;;;5072777;28;20063;-69
2021/12/12 13:00:06;;;;;;;36.08;16.45;;;;;;;;;;5073499;28;20182;-69
2021/12/12 13:02:51;;;;;;;37.42;17.70;;;;;;;;;;5067650;28;20126;-69
2021/12/12 13:05:38;;;;;;;31.88;17.17;;;;;;;;;;5067593;28;20176;-70
2021/12/12 13:08:23;;;;;;;30.02;17.02;;;;;;;;;;5058233;28;20056;-70
2021/12/12 13:10:51;;;;;;;42.73;17.83;;;;;;;;;;5057917;28;20139;-69
2021/12/12 13:13:27;;;;;;;34.78;17.83;;;;;;;;;;5063822;28;20308;-68
2021/12/12 13:16:12;;;;;;;35.70;18.13;;;;;;;;;;5063843;28;20053;-68
2021/12/12 13:18:58;;;;;;;33.33;17.38;;;;;;;;;;5072919;28;20049;-69
2021/12/12 13:21:45;;;;;;;33.33;17.87;;;;;;;;;;5072419;28;20056;-69
2021/12/12 13:24:30;;;;;;;34.55;18.38;;;;;;;;;;5072302;28;20059;-68
2021/12/12 13:27:19;;;;;;;45.40;19.83;;;;;;;;;;5072365;28;20053;-67
2021/12/12 13:29:59;;;;;;;41.45;19.77;;;;;;;;;;5078432;28;20057;-67
2021/12/12 13:32:35;;;;;;;41.47;19.63;;;;;;;;;;5067414;28;20049;-67
2021/12/12 13:35:04;;;;;;;36.53;18.10;;;;;;;;;;5068290;28;20048;-69
2021/12/12 13:37:50;;;;;;;39.60;19.35;;;;;;;;;;5065927;28;20103;-68
2021/12/12 13:40:17;;;;;;;;;;;;;;;;;;5070865;28;20075;-68
2021/12/12 13:42:49;;;;;;;43.75;19.75;;;;;;;;;;5062626;28;44769;-69
2021/12/12 13:45:26;;;;;;;35.42;18.40;;;;;;;;;;5058189;28;20089;-67
2021/12/12 13:48:12;;;;;;;36.50;18.25;;;;;;;;;;5070912;28;20045;-68
2021/12/12 13:50:48;;;;;;;42.35;19.52;;;;;;;;;;5057669;28;20495;-68
2021/12/12 13:53:41;;;;;;;39.35;18.80;;;;;;;;;;5059887;28;20053;-69
2021/12/12 13:56:26;;;;;;;41.80;18.20;;;;;;;;;;5068053;28;20408;-69
2021/12/12 13:59:22;;;;;;;39.70;18.30;;;;;;;;;;5072065;28;20156;-69
2021/12/12 14:01:59;;;;;;;34.25;16.67;;;;;;;;;;5055847;28;20052;-69
2021/12/12 14:04:28;;;;;;;32.22;16.52;;;;;;;;;;5063772;28;20064;-69
2021/12/12 14:06:55;;;;;;;34.72;18.75;;;;;;;;;;5067893;28;20055;-67
2021/12/12 14:09:24;;;;;;;34.47;16.75;;;;;;;;;;5066775;28;20056;-69
2021/12/12 14:11:54;;;;;;;36.28;16.90;;;;;;;;;;5066090;28;20049;-68
2021/12/12 14:14:26;;;;;;;37.22;16.88;;;;;;;;;;5071480;28;20103;-68
2021/12/12 14:16:56;;;;;;;34.90;17.10;;;;;;;;;;5067057;28;20059;-68
2021/12/12 14:19:28;;;;;;;39.67;17.35;;;;;;;;;;5065399;28;20100;-70
2021/12/12 14:21:55;;;;;;;35.20;16.80;;;;;;;;;;5062341;28;20058;-69
2021/12/12 14:24:22;;;;;;;32.00;16.00;;;;;;;;;;5069408;28;20063;-68
2021/12/12 14:26:50;;;;;;;34.08;15.40;;;;;;;;;;5065138;28;20049;-68
2021/12/12 14:29:20;;;;;;;32.30;15.98;;;;;;;;;;5071498;28;20056;-69
2021/12/12 14:31:56;;;;;;;34.78;16.40;;;;;;;;;;5071086;28;20140;-69
2021/12/12 14:34:34;;;;;;;35.42;16.00;;;;;;;;;;5062180;28;20049;-68
2021/12/12 14:37:08;;;;;;;38.75;17.15;;;;;;;;;;5065993;28;20080;-68
2021/12/12 14:39:35;;;;;;;37.70;16.98;;;;;;;;;;5057449;28;20056;-70
2021/12/12 14:42:24;;;;;;;40.13;17.77;;;;;;;;;;5067875;28;20059;-68
2021/12/12 14:44:53;;;;;;;37.95;17.25;;;;;;;;;;5065502;28;20063;-69
2021/12/12 14:47:27;;;;;;;41.67;17.85;;;;;;;;;;5066439;28;20049;-70
2021/12/12 14:49:57;;;;;;;46.97;19.25;;;;;;;;;;5064842;28;20045;-67
2021/12/12 14:52:29;;;;;;;43.05;19.00;;;;;;;;;;5074216;28;20518;-67
2021/12/12 14:55:11;;;;;;;47.05;19.00;;;;;;;;;;5073499;28;20107;-68
2021/12/12 14:57:37;;;;;;;44.35;18.83;;;;;;;;;;5069389;28;20923;-68
2021/12/12 15:00:12;;;;;;;41.53;19.05;;;;;;;;;;5074389;28;20095;-67
2021/12/12 15:02:59;;;;;;;44.72;19.23;;;;;;;;;;5066650;28;20053;-69